createdAt,value
2023-02-11T00:02:01.830Z,1.07
2023-02-11T00:04:29.657Z,1.08
2023-02-11T00:06:57.421Z,1.06
2023-02-11T00:09:25.186Z,1.05
2023-02-11T00:11:53.164Z,1.05
2023-02-11T00:14:20.918Z,1.04
2023-02-11T00:16:48.673Z,1.03
2023-02-11T00:19:16.553Z,1.01
2023-02-11T00:21:44.421Z,0.97
2023-02-11T00:24:12.076Z,0.99
2023-02-11T00:26:39.840Z,1.05
2023-02-11T00:29:07.603Z,1.06
2023-02-11T00:31:35.416Z,1.05
2023-02-11T00:34:03.338Z,1.03
2023-02-11T00:36:31.206Z,1.03
2023-02-11T00:38:59.072Z,1.01
2023-02-11T00:41:26.733Z,0.98
2023-02-11T00:43:54.490Z,0.95
2023-02-11T00:46:22.322Z,0.92
2023-02-11T00:48:51.993Z,0.87
2023-02-11T00:51:19.827Z,0.82
2023-02-11T00:53:47.489Z,0.77
2023-02-11T00:56:15.154Z,0.74
2023-02-11T00:58:42.914Z,0.74
2023-02-11T01:01:10.726Z,0.77
2023-02-11T01:03:38.446Z,0.75
2023-02-11T01:06:06.207Z,0.68
2023-02-11T01:08:33.974Z,0.64
2023-02-11T01:11:01.671Z,0.60
2023-02-11T01:13:29.403Z,0.56
2023-02-11T01:15:57.153Z,0.51
2023-02-11T01:18:24.929Z,0.48
2023-02-11T01:20:52.689Z,0.44
2023-02-11T01:23:20.376Z,0.40
2023-02-11T01:25:48.165Z,0.36
2023-02-11T01:28:16.214Z,0.33
2023-02-11T01:30:43.996Z,0.40
2023-02-11T01:33:11.830Z,0.42
2023-02-11T01:35:39.590Z,0.39
2023-02-11T01:38:07.348Z,0.37
2023-02-11T01:40:35.116Z,0.35
2023-02-11T01:43:02.772Z,0.32
2023-02-11T01:45:30.543Z,0.29
2023-02-11T01:47:58.198Z,0.27
2023-02-11T01:50:25.983Z,0.25
2023-02-11T01:52:53.730Z,0.21
2023-02-11T01:55:40.535Z,0.19
2023-02-11T01:58:08.302Z,0.15
2023-02-11T02:00:36.682Z,0.16
2023-02-11T02:03:04.440Z,0.18
2023-02-11T02:05:32.218Z,0.17
2023-02-11T02:07:59.981Z,0.13
2023-02-11T02:10:27.732Z,0.09
2023-02-11T02:12:55.497Z,0.06
2023-02-11T02:15:23.687Z,0.04
2023-02-11T02:17:51.431Z,0.00
2023-02-11T02:20:19.603Z,-0.03
2023-02-11T02:22:47.267Z,-0.07
2023-02-11T02:25:14.928Z,-0.10
2023-02-11T02:27:42.689Z,-0.12
2023-02-11T02:30:10.461Z,-0.15
2023-02-11T02:32:38.109Z,-0.18
2023-02-11T02:35:05.880Z,-0.15
2023-02-11T02:37:33.846Z,-0.10
2023-02-11T02:40:01.561Z,-0.09
2023-02-11T02:42:29.375Z,-0.08
2023-02-11T02:44:57.242Z,-0.08
2023-02-11T02:47:24.902Z,-0.09
2023-02-11T02:49:52.570Z,-0.11
2023-02-11T02:52:20.227Z,-0.13
2023-02-11T02:54:47.915Z,-0.15
2023-02-11T02:57:15.655Z,-0.16
2023-02-11T02:59:43.419Z,-0.15
2023-02-11T03:02:11.184Z,-0.15
2023-02-11T03:04:38.946Z,-0.19
2023-02-11T03:07:06.607Z,-0.24
2023-02-11T03:09:34.370Z,-0.27
2023-02-11T03:12:02.135Z,-0.27
2023-02-11T03:14:30.308Z,-0.23
2023-02-11T03:16:58.072Z,-0.24
2023-02-11T03:19:25.733Z,-0.26
2023-02-11T03:21:53.501Z,-0.27
2023-02-11T03:24:21.159Z,-0.26
2023-02-11T03:26:48.821Z,-0.27
2023-02-11T03:29:16.605Z,-0.27
2023-02-11T03:31:44.398Z,-0.27
2023-02-11T03:34:12.938Z,-0.28
2023-02-11T03:36:41.412Z,-0.28
2023-02-11T03:39:09.078Z,-0.28
2023-02-11T03:41:36.843Z,-0.30
2023-02-11T03:44:04.600Z,-0.30
2023-02-11T03:46:32.374Z,-0.25
2023-02-11T03:49:00.131Z,-0.25
2023-02-11T03:51:27.795Z,-0.28
2023-02-11T03:53:55.559Z,-0.27
2023-02-11T03:56:23.221Z,-0.28
2023-02-11T03:58:50.982Z,-0.27
2023-02-11T04:01:18.732Z,-0.29
2023-02-11T04:03:46.612Z,-0.33
2023-02-11T04:06:14.379Z,-0.37
2023-02-11T04:08:42.138Z,-0.39
2023-02-11T04:11:09.800Z,-0.37
2023-02-11T04:13:37.566Z,-0.38
2023-02-11T04:16:05.342Z,-0.36
2023-02-11T04:18:33.098Z,-0.29
2023-02-11T04:21:00.856Z,-0.26
2023-02-11T04:23:28.619Z,-0.26
2023-02-11T04:25:56.382Z,-0.23
2023-02-11T04:28:24.239Z,-0.23
2023-02-11T04:30:52.133Z,-0.24
2023-02-11T04:33:19.982Z,-0.26
2023-02-11T04:35:47.847Z,-0.29
2023-02-11T04:38:15.715Z,-0.34
2023-02-11T04:40:43.478Z,-0.37
2023-02-11T04:43:11.243Z,-0.39
2023-02-11T04:45:38.948Z,-0.42
2023-02-11T04:48:06.771Z,-0.44
2023-02-11T04:50:34.434Z,-0.43
2023-02-11T04:53:02.204Z,-0.39
2023-02-11T04:55:29.969Z,-0.39
2023-02-11T04:57:57.729Z,-0.39
2023-02-11T05:00:25.489Z,-0.39
2023-02-11T05:02:53.352Z,-0.37
2023-02-11T05:05:21.231Z,-0.37
2023-02-11T05:07:48.987Z,-0.38
2023-02-11T05:10:16.752Z,-0.42
2023-02-11T05:12:44.512Z,-0.45
2023-02-11T05:15:12.174Z,-0.49
2023-02-11T05:17:39.935Z,-0.51
2023-02-11T05:20:07.706Z,-0.51
2023-02-11T05:22:35.468Z,-0.53
2023-02-11T05:25:03.227Z,-0.54
2023-02-11T05:27:30.999Z,-0.49
2023-02-11T05:29:58.762Z,-0.45
2023-02-11T05:32:26.519Z,-0.47
2023-02-11T05:34:54.190Z,-0.47
2023-02-11T05:37:21.966Z,-0.46
2023-02-11T05:39:49.708Z,-0.46
2023-02-11T05:42:17.471Z,-0.46
2023-02-11T05:44:45.241Z,-0.46
2023-02-11T05:47:13.000Z,-0.49
2023-02-11T05:49:40.767Z,-0.53
2023-02-11T05:52:08.528Z,-0.57
2023-02-11T05:54:36.233Z,-0.59
2023-02-11T05:57:03.953Z,-0.62
2023-02-11T05:59:31.720Z,-0.63
2023-02-11T06:01:59.483Z,-0.65
2023-02-11T06:04:27.245Z,-0.60
2023-02-11T06:06:54.908Z,-0.59
2023-02-11T06:09:22.672Z,-0.64
2023-02-11T06:11:50.434Z,-0.68
2023-02-11T06:14:18.197Z,-0.70
2023-02-11T06:16:45.960Z,-0.71
2023-02-11T06:19:13.624Z,-0.73
2023-02-11T06:21:44.203Z,-0.73
2023-02-11T06:24:12.116Z,-0.75
2023-02-11T06:26:39.889Z,-0.72
2023-02-11T06:29:07.659Z,-0.69
2023-02-11T06:31:35.453Z,-0.68
2023-02-11T06:34:03.284Z,-0.66
2023-02-11T06:36:31.253Z,-0.66
2023-02-11T06:38:59.015Z,-0.66
2023-02-11T06:41:26.774Z,-0.59
2023-02-11T06:43:54.540Z,-0.54
2023-02-11T06:46:22.358Z,-0.55
2023-02-11T06:48:50.068Z,-0.55
2023-02-11T06:51:17.845Z,-0.53
2023-02-11T06:53:45.600Z,-0.51
2023-02-11T06:56:13.360Z,-0.49
2023-02-11T06:58:41.124Z,-0.48
2023-02-11T07:01:08.888Z,-0.49
2023-02-11T07:03:36.758Z,-0.49
2023-02-11T07:06:05.759Z,-0.52
2023-02-11T07:08:33.509Z,-0.54
2023-02-11T07:11:01.278Z,-0.55
2023-02-11T07:13:29.038Z,-0.58
2023-02-11T07:15:56.731Z,-0.59
2023-02-11T07:18:24.462Z,-0.56
2023-02-11T07:20:52.124Z,-0.55
2023-02-11T07:23:19.890Z,-0.56
2023-02-11T07:25:47.649Z,-0.54
2023-02-11T07:28:15.416Z,-0.53
2023-02-11T07:30:43.215Z,-0.54
2023-02-11T07:33:10.943Z,-0.54
2023-02-11T07:35:40.441Z,-0.52
2023-02-11T07:38:09.440Z,-0.49
2023-02-11T07:40:37.203Z,-0.49
2023-02-11T07:43:04.967Z,-0.48
2023-02-11T07:45:32.730Z,-0.47
2023-02-11T07:48:00.501Z,-0.38
2023-02-11T07:50:28.254Z,-0.28
2023-02-11T07:52:55.920Z,-0.25
2023-02-11T07:55:23.690Z,-0.21
2023-02-11T07:57:51.462Z,-0.17
2023-02-11T08:00:21.093Z,-0.15
2023-02-11T08:02:49.130Z,-0.14
2023-02-11T08:05:16.992Z,-0.13
2023-02-11T08:07:44.665Z,-0.10
2023-02-11T08:10:12.424Z,-0.09
2023-02-11T08:12:40.077Z,-0.07
2023-02-11T08:15:07.841Z,-0.06
2023-02-11T08:17:35.608Z,-0.05
2023-02-11T08:20:03.263Z,-0.01
2023-02-11T08:22:30.925Z,0.09
2023-02-11T08:24:58.896Z,0.15
2023-02-11T08:27:29.831Z,0.19
2023-02-11T08:29:59.643Z,0.22
2023-02-11T08:32:27.509Z,0.26
2023-02-11T08:34:55.172Z,0.28
2023-02-11T08:37:23.035Z,0.32
2023-02-11T08:39:51.214Z,0.40
2023-02-11T08:42:18.980Z,0.45
2023-02-11T08:44:46.742Z,0.47
2023-02-11T08:47:14.400Z,0.52
2023-02-11T08:49:42.886Z,0.54
2023-02-11T08:52:10.645Z,0.59
2023-02-11T08:54:38.308Z,0.63
2023-02-11T08:57:06.069Z,0.70
2023-02-11T08:59:33.837Z,0.85
2023-02-11T09:02:01.625Z,0.94
2023-02-11T09:04:29.378Z,1.02
2023-02-11T09:06:57.022Z,1.10
2023-02-11T09:09:24.786Z,1.16
2023-02-11T09:11:57.384Z,1.23
2023-02-11T09:14:25.126Z,1.30
2023-02-11T09:16:53.522Z,1.37
2023-02-11T09:19:21.376Z,1.44
2023-02-11T09:21:49.377Z,1.51
2023-02-11T09:24:17.110Z,1.56
2023-02-11T09:26:44.872Z,1.63
2023-02-11T09:29:12.628Z,1.76
2023-02-11T09:31:40.490Z,1.89
2023-02-11T09:34:08.672Z,2.03
2023-02-11T09:36:37.581Z,2.14
2023-02-11T09:39:10.864Z,2.21
2023-02-11T09:41:39.136Z,2.31
2023-02-11T09:44:06.897Z,2.43
2023-02-11T09:46:34.594Z,2.52
2023-02-11T09:49:02.425Z,2.53
2023-02-11T09:51:30.087Z,2.51
2023-02-11T09:54:00.094Z,2.46
2023-02-11T09:56:28.484Z,2.42
2023-02-11T09:58:56.252Z,2.41
2023-02-11T10:01:23.951Z,2.38
2023-02-11T10:03:51.677Z,2.37
2023-02-11T10:06:20.267Z,2.35
2023-02-11T10:08:48.033Z,2.34
2023-02-11T10:11:29.686Z,2.33
2023-02-11T10:13:58.910Z,2.31
2023-02-11T10:16:26.573Z,2.31
2023-02-11T10:18:54.340Z,2.32
2023-02-11T10:21:22.017Z,2.31
2023-02-11T10:23:49.760Z,2.32
2023-02-11T10:26:17.528Z,2.34
2023-02-11T10:28:45.249Z,2.36
2023-02-11T10:31:15.982Z,2.38
2023-02-11T10:33:43.889Z,2.42
2023-02-11T10:36:11.550Z,2.46
2023-02-11T10:38:39.518Z,2.49
2023-02-11T10:41:07.389Z,2.53
2023-02-11T10:43:35.149Z,2.56
2023-02-11T10:46:02.963Z,2.61
2023-02-11T10:48:30.782Z,2.64
2023-02-11T10:50:58.479Z,2.68
2023-02-11T10:53:26.511Z,2.71
2023-02-11T10:55:54.183Z,2.75
2023-02-11T10:58:21.938Z,2.80
2023-02-11T11:00:49.925Z,2.85
2023-02-11T11:03:17.876Z,2.92
2023-02-11T11:05:45.537Z,3.00
2023-02-11T11:08:13.521Z,3.07
2023-02-11T11:10:44.146Z,3.14
2023-02-11T11:13:11.900Z,3.21
2023-02-11T11:15:39.586Z,3.27
2023-02-11T11:18:20.510Z,3.32
2023-02-11T11:20:49.848Z,3.36
2023-02-11T11:23:17.803Z,3.39
2023-02-11T11:25:46.280Z,3.44
2023-02-11T11:28:14.007Z,3.47
2023-02-11T11:30:41.849Z,3.52
2023-02-11T11:33:09.575Z,3.59
2023-02-11T11:35:37.236Z,3.67
2023-02-11T11:38:05.246Z,3.72
2023-02-11T11:40:32.972Z,3.78
2023-02-11T11:43:00.736Z,3.85
2023-02-11T11:45:28.497Z,3.90
2023-02-11T11:47:58.518Z,3.93
2023-02-11T11:50:26.684Z,3.99
2023-02-11T11:52:54.341Z,4.06
2023-02-11T11:55:22.111Z,4.09
2023-02-11T11:57:49.870Z,4.08
2023-02-11T12:00:17.744Z,4.09
2023-02-11T12:02:45.529Z,4.10
2023-02-11T12:05:13.374Z,4.10
2023-02-11T12:07:41.338Z,4.08
2023-02-11T12:10:09.098Z,4.07
2023-02-11T12:12:36.864Z,4.04
2023-02-11T12:15:04.727Z,4.01
2023-02-11T12:17:32.389Z,3.98
2023-02-11T12:20:00.150Z,3.96
2023-02-11T12:22:27.918Z,3.94
2023-02-11T12:24:55.580Z,3.92
2023-02-11T12:27:23.343Z,3.89
2023-02-11T12:29:51.115Z,3.87
2023-02-11T12:32:18.807Z,3.85
2023-02-11T12:34:46.536Z,3.83
2023-02-11T12:37:14.196Z,3.81
2023-02-11T12:39:41.959Z,3.79
2023-02-11T12:42:28.583Z,3.79
2023-02-11T12:44:56.329Z,3.77
2023-02-11T12:47:24.196Z,3.76
2023-02-11T12:49:51.860Z,3.75
2023-02-11T12:52:19.519Z,3.73
2023-02-11T12:54:47.306Z,3.72
2023-02-11T12:57:15.048Z,3.72
2023-02-11T12:59:42.810Z,3.71
2023-02-11T13:02:10.502Z,3.70
2023-02-11T13:04:38.134Z,3.68
2023-02-11T13:07:06.615Z,3.67
2023-02-11T13:09:34.278Z,3.67
2023-02-11T13:12:21.918Z,3.65
2023-02-11T13:14:49.572Z,3.65
2023-02-11T13:17:17.556Z,3.64
2023-02-11T13:19:45.304Z,3.63
2023-02-11T13:22:13.067Z,3.63
2023-02-11T13:24:40.838Z,3.62
2023-02-11T13:27:08.496Z,3.62
2023-02-11T13:29:36.266Z,3.61
2023-02-11T13:32:04.075Z,3.60
2023-02-11T13:34:31.728Z,3.58
2023-02-11T13:36:59.447Z,3.57
2023-02-11T13:39:27.106Z,3.55
2023-02-11T13:41:54.872Z,3.54
2023-02-11T13:44:22.956Z,3.53
2023-02-11T13:46:50.919Z,3.51
2023-02-11T13:49:18.575Z,3.51
2023-02-11T13:51:46.344Z,3.49
2023-02-11T13:54:14.609Z,3.49
2023-02-11T13:56:46.469Z,3.48
2023-02-11T13:59:14.231Z,3.48
2023-02-11T14:01:42.741Z,3.47
2023-02-11T14:04:29.524Z,3.47
2023-02-11T14:07:15.820Z,3.46
2023-02-11T14:09:43.587Z,3.46
2023-02-11T14:12:11.350Z,3.45
2023-02-11T14:14:39.012Z,3.43
2023-02-11T14:17:06.720Z,3.43
2023-02-11T14:19:34.542Z,3.41
2023-02-11T14:22:02.509Z,3.40
2023-02-11T14:24:31.199Z,3.38
2023-02-11T14:26:58.857Z,3.36
2023-02-11T14:29:26.520Z,3.33
2023-02-11T14:31:54.407Z,3.32
2023-02-11T14:34:22.252Z,3.36
2023-02-11T14:36:50.016Z,3.35
2023-02-11T14:39:17.679Z,3.26
2023-02-11T14:41:45.645Z,3.18
2023-02-11T14:44:13.410Z,3.12
2023-02-11T14:46:41.102Z,3.04
2023-02-11T14:49:09.346Z,2.98
2023-02-11T14:51:37.112Z,2.97
2023-02-11T14:54:04.879Z,2.92
2023-02-11T14:56:34.789Z,2.85
2023-02-11T14:59:03.064Z,2.79
2023-02-11T15:01:32.586Z,2.75
2023-02-11T15:04:02.808Z,2.78
2023-02-11T15:06:30.554Z,2.79
2023-02-11T15:09:01.023Z,2.75
2023-02-11T15:11:28.679Z,2.73
2023-02-11T15:13:56.612Z,2.70
2023-02-11T15:16:24.397Z,2.67
2023-02-11T15:18:52.246Z,2.73
2023-02-11T15:21:19.904Z,2.75
2023-02-11T15:23:47.668Z,2.72
2023-02-11T15:26:15.534Z,2.69
2023-02-11T15:28:43.198Z,2.65
2023-02-11T15:31:10.919Z,2.63
2023-02-11T15:33:38.703Z,2.67
2023-02-11T15:36:06.692Z,2.63
2023-02-11T15:38:34.457Z,2.59
2023-02-11T15:41:02.319Z,2.57
2023-02-11T15:43:30.086Z,2.55
2023-02-11T15:45:57.781Z,2.57
2023-02-11T15:48:27.158Z,2.61
2023-02-11T15:50:55.118Z,2.58
2023-02-11T15:53:23.395Z,2.56
2023-02-11T15:55:51.159Z,2.54
2023-02-11T15:58:18.922Z,2.53
2023-02-11T16:00:46.691Z,2.53
2023-02-11T16:03:14.449Z,2.58
2023-02-11T16:05:42.216Z,2.60
2023-02-11T16:08:09.885Z,2.58
2023-02-11T16:10:37.638Z,2.56
2023-02-11T16:13:05.427Z,2.54
2023-02-11T16:15:33.169Z,2.52
2023-02-11T16:18:00.930Z,2.57
2023-02-11T16:20:28.697Z,2.56
2023-02-11T16:22:56.459Z,2.54
2023-02-11T16:25:24.227Z,2.52
2023-02-11T16:27:51.987Z,2.51
2023-02-11T16:30:19.646Z,2.54
2023-02-11T16:32:47.412Z,2.56
2023-02-11T16:35:15.175Z,2.52
2023-02-11T16:37:42.846Z,2.49
2023-02-11T16:40:12.031Z,2.47
2023-02-11T16:42:40.002Z,2.48
2023-02-11T16:45:07.904Z,2.53
2023-02-11T16:47:35.734Z,2.54
2023-02-11T16:50:04.736Z,2.50
2023-02-11T16:52:32.496Z,2.48
2023-02-11T16:55:00.254Z,2.50
2023-02-11T16:57:30.138Z,2.54
2023-02-11T16:59:59.574Z,2.50
2023-02-11T17:02:27.336Z,2.47
2023-02-11T17:04:55.225Z,2.48
2023-02-11T17:07:23.067Z,2.53
2023-02-11T17:09:51.982Z,2.48
2023-02-11T17:12:19.721Z,2.46
2023-02-11T17:14:47.484Z,2.43
2023-02-11T17:17:15.144Z,2.49
2023-02-11T17:19:42.779Z,2.50
2023-02-11T17:22:10.467Z,2.47
2023-02-11T17:24:38.234Z,2.44
2023-02-11T17:27:05.891Z,2.46
2023-02-11T17:29:33.552Z,2.51
2023-02-11T17:32:01.390Z,2.48
2023-02-11T17:34:29.593Z,2.45
2023-02-11T17:36:58.902Z,2.43
2023-02-11T17:39:26.661Z,2.47
2023-02-11T17:41:54.422Z,2.48
2023-02-11T17:44:22.188Z,2.45
2023-02-11T17:46:49.947Z,2.44
2023-02-11T17:49:17.818Z,2.43
2023-02-11T17:51:45.584Z,2.48
2023-02-11T17:54:13.354Z,2.46
2023-02-11T17:56:41.108Z,2.44
2023-02-11T17:59:08.804Z,2.43
2023-02-11T18:01:36.535Z,2.40
2023-02-11T18:04:04.714Z,2.43
2023-02-11T18:06:34.011Z,2.44
2023-02-11T18:09:04.540Z,2.41
2023-02-11T18:11:32.301Z,2.38
2023-02-11T18:13:59.958Z,2.35
2023-02-11T18:16:29.623Z,2.30
2023-02-11T18:18:57.454Z,2.34
2023-02-11T18:21:25.219Z,2.35
2023-02-11T18:23:52.961Z,2.32
2023-02-11T18:26:20.633Z,2.29
2023-02-11T18:28:48.606Z,2.27
2023-02-11T18:31:16.455Z,2.27
2023-02-11T18:33:44.431Z,2.30
2023-02-11T18:36:12.090Z,2.30
2023-02-11T18:38:39.755Z,2.27
2023-02-11T18:41:07.625Z,2.23
2023-02-11T18:43:35.402Z,2.22
2023-02-11T18:46:03.214Z,2.23
2023-02-11T18:48:31.023Z,2.28
2023-02-11T18:50:58.779Z,2.27
2023-02-11T18:53:26.453Z,2.23
2023-02-11T18:55:54.554Z,2.21
2023-02-11T18:58:22.798Z,2.20
2023-02-11T19:00:50.585Z,2.20
2023-02-11T19:03:18.522Z,2.24
2023-02-11T19:05:46.284Z,2.22
2023-02-11T19:08:14.049Z,2.19
2023-02-11T19:10:42.015Z,2.16
2023-02-11T19:13:09.799Z,2.19
2023-02-11T19:15:37.645Z,2.25
2023-02-11T19:18:05.307Z,2.25
2023-02-11T19:20:33.688Z,2.22
2023-02-11T19:23:01.457Z,2.19
2023-02-11T19:25:29.417Z,2.19
2023-02-11T19:27:57.246Z,2.24
2023-02-11T19:30:25.051Z,2.23
2023-02-11T19:32:54.347Z,2.20
2023-02-11T19:35:24.475Z,2.18
2023-02-11T19:37:52.273Z,2.16
2023-02-11T19:40:21.427Z,2.19
2023-02-11T19:42:49.089Z,2.22
2023-02-11T19:45:16.751Z,2.23
2023-02-11T19:47:44.619Z,2.21
2023-02-11T19:50:12.278Z,2.21
2023-02-11T19:52:40.781Z,2.19
2023-02-11T19:55:08.522Z,2.21
2023-02-11T19:57:36.184Z,2.26
2023-02-11T20:00:03.961Z,2.27
2023-02-11T20:02:31.952Z,2.25
2023-02-11T20:04:59.679Z,2.24
2023-02-11T20:07:27.444Z,2.23
2023-02-11T20:09:55.209Z,2.26
2023-02-11T20:12:22.854Z,2.30
2023-02-11T20:14:50.531Z,2.28
2023-02-11T20:17:18.296Z,2.25
2023-02-11T20:19:46.068Z,2.24
2023-02-11T20:22:13.925Z,2.25
2023-02-11T20:24:41.692Z,2.31
2023-02-11T20:27:11.707Z,2.31
2023-02-11T20:29:39.467Z,2.30
2023-02-11T20:32:07.403Z,2.27
2023-02-11T20:34:35.306Z,2.27
2023-02-11T20:37:04.296Z,2.33
2023-02-11T20:39:32.055Z,2.37
2023-02-11T20:41:59.821Z,2.35
2023-02-11T20:44:27.584Z,2.33
2023-02-11T20:46:55.869Z,2.32
2023-02-11T20:49:23.966Z,2.36
2023-02-11T20:51:53.953Z,2.40
2023-02-11T20:54:22.125Z,2.37
2023-02-11T20:56:51.360Z,2.36
2023-02-11T20:59:19.496Z,2.35
2023-02-11T21:01:47.322Z,2.35
2023-02-11T21:04:15.438Z,2.41
2023-02-11T21:06:43.096Z,2.43
2023-02-11T21:09:10.872Z,2.42
2023-02-11T21:11:38.623Z,2.42
2023-02-11T21:14:06.384Z,2.41
2023-02-11T21:16:34.149Z,2.41
2023-02-11T21:19:03.038Z,2.45
2023-02-11T21:21:30.804Z,2.45
2023-02-11T21:23:58.980Z,2.44
2023-02-11T21:26:26.743Z,2.41
2023-02-11T21:28:55.429Z,2.40
2023-02-11T21:31:23.504Z,2.41
2023-02-11T21:33:51.367Z,2.47
2023-02-11T21:36:19.131Z,2.49
2023-02-11T21:38:46.901Z,2.47
2023-02-11T21:41:14.564Z,2.46
2023-02-11T21:43:42.222Z,2.45
2023-02-11T21:46:10.094Z,2.46
2023-02-11T21:48:37.848Z,2.53
2023-02-11T21:51:05.818Z,2.54
2023-02-11T21:53:33.483Z,2.53
2023-02-11T21:56:01.143Z,2.54
2023-02-11T21:58:28.814Z,2.53
2023-02-11T22:00:56.608Z,2.55
2023-02-11T22:03:24.438Z,2.60
2023-02-11T22:05:52.292Z,2.60
2023-02-11T22:08:20.364Z,2.58
2023-02-11T22:10:48.134Z,2.58
2023-02-11T22:13:15.901Z,2.57
2023-02-11T22:15:43.664Z,2.59
2023-02-11T22:18:11.335Z,2.63
2023-02-11T22:20:38.965Z,2.62
2023-02-11T22:23:06.655Z,2.59
2023-02-11T22:25:34.311Z,2.58
2023-02-11T22:28:01.984Z,2.57
2023-02-11T22:30:29.730Z,2.59
2023-02-11T22:32:57.393Z,2.64
2023-02-11T22:35:25.038Z,2.64
2023-02-11T22:37:52.713Z,2.61
2023-02-11T22:40:20.481Z,2.60
2023-02-11T22:42:48.141Z,2.57
2023-02-11T22:45:15.803Z,2.62
2023-02-11T22:47:43.560Z,2.66
2023-02-11T22:50:11.231Z,2.63
2023-02-11T22:52:38.898Z,2.61
2023-02-11T22:55:07.263Z,2.57
2023-02-11T22:57:34.921Z,2.59
2023-02-11T23:00:02.694Z,2.63
2023-02-11T23:02:30.396Z,2.61
2023-02-11T23:04:59.544Z,2.57
2023-02-11T23:07:27.310Z,2.55
2023-02-11T23:09:55.073Z,2.54
2023-02-11T23:12:22.841Z,2.55
2023-02-11T23:14:50.502Z,2.62
2023-02-11T23:17:19.801Z,2.63
2023-02-11T23:19:47.475Z,2.62
2023-02-11T23:22:15.124Z,2.60
2023-02-11T23:24:42.886Z,2.58
2023-02-11T23:27:10.550Z,2.59
2023-02-11T23:29:38.210Z,2.65
2023-02-11T23:32:05.900Z,2.67
2023-02-11T23:34:33.638Z,2.66
2023-02-11T23:37:01.614Z,2.64
2023-02-11T23:39:29.369Z,2.64
2023-02-11T23:41:59.181Z,2.63
2023-02-11T23:44:26.847Z,2.70
2023-02-11T23:46:54.611Z,2.71
2023-02-11T23:49:22.375Z,2.68
2023-02-11T23:51:50.141Z,2.68
2023-02-11T23:54:17.802Z,2.66
2023-02-11T23:56:46.380Z,2.66
2023-02-11T23:59:14.061Z,2.69
